sim
Sign-in with your pilot id or email,
or register
Callsign
Passwort

Schedule Details

Flight Number: DLH817 (1)
Departure: Gothenburg Landvetter Airport (ESGG) at 12:55
Arrival: Frankfurt Airport (EDDF) at 14:35
Route: Lufthansa Passenger Schedule. Enter filed route here before submitting Pirep.

Weather Information
Getting current METAR information for ESGG 251350Z 20013KT 9999 -RA SCT005 BKN008 11/10 Q0998
Getting current METAR information for EDDF 251350Z 17010KT 140V200 9999 FEW032 SCT041 16/09 Q1005 NOSIG

Schedule Frequency

Route Map